Time;durP1;ratioP1;P1;durP2;ratioP2;P2;SDS_P1;SDS_P2;PMS_P1;PMS_P2;Temp;Humidity;BMP_temperature;BMP_pressure;BME280_temperature;BME280_humidity;BME280_pressure;Samples;Min_cycle;Max_cycle;Signal;HPM_P1;HPM_P2
2023/07/27 00:02:03;;;;;;;0.32;0.32;;;;;;;16.63;100.00;98093.03;5009180;28;20042;-81
2023/07/27 00:04:29;;;;;;;0.30;0.30;;;;;;;16.64;100.00;98097.38;4994174;28;20074;-81
2023/07/27 00:06:56;;;;;;;0.30;0.30;;;;;;;16.62;100.00;98103.13;4994514;28;20086;-80
2023/07/27 00:09:23;;;;;;;0.30;0.30;;;;;;;16.55;100.00;98101.94;5008270;28;20141;-80
2023/07/27 00:11:50;;;;;;;0.38;0.38;;;;;;;16.55;100.00;98110.09;4993864;28;20390;-79
2023/07/27 00:14:17;;;;;;;0.40;0.40;;;;;;;16.53;100.00;98110.38;4993903;28;20078;-80
2023/07/27 00:16:45;;;;;;;0.30;0.30;;;;;;;16.46;100.00;98108.09;4993797;28;20077;-79
2023/07/27 00:19:12;;;;;;;0.30;0.30;;;;;;;16.45;100.00;98122.81;5008551;28;20046;-80
2023/07/27 00:21:39;;;;;;;0.38;0.38;;;;;;;16.47;100.00;98134.22;5025037;28;20046;-80
2023/07/27 00:24:06;;;;;;;0.30;0.30;;;;;;;16.50;100.00;98138.25;4992003;28;20054;-80
2023/07/27 00:26:33;;;;;;;0.40;0.40;;;;;;;16.54;100.00;98136.53;4993085;28;20137;-81
2023/07/27 00:29:00;;;;;;;0.30;0.30;;;;;;;16.55;100.00;98143.59;4993262;28;20567;-80
2023/07/27 00:31:27;;;;;;;0.30;0.30;;;;;;;16.49;100.00;98135.84;4993062;28;20592;-79
2023/07/27 00:33:54;;;;;;;0.30;0.30;;;;;;;16.50;100.00;98142.88;5008320;28;20046;-80
2023/07/27 00:36:21;;;;;;;0.40;0.40;;;;;;;16.51;100.00;98149.94;4992184;28;20050;-79
2023/07/27 00:38:48;;;;;;;0.30;0.30;;;;;;;16.47;100.00;98138.84;4993292;28;20061;-81
2023/07/27 00:41:15;;;;;;;0.32;0.32;;;;;;;16.49;100.00;98142.09;4993148;28;20159;-79
2023/07/27 00:43:42;;;;;;;0.40;0.40;;;;;;;16.50;100.00;98137.44;5006898;28;20077;-80
2023/07/27 00:46:11;;;;;;;0.35;0.35;;;;;;;16.51;100.00;98139.88;4975916;28;20058;-80
2023/07/27 00:48:40;;;;;;;0.30;0.30;;;;;;;16.52;100.00;98162.47;5024599;28;20057;-79
2023/07/27 00:51:08;;;;;;;0.30;0.30;;;;;;;16.45;100.00;98151.97;5008615;28;20057;-80
2023/07/27 00:53:35;;;;;;;0.40;0.40;;;;;;;16.43;100.00;98149.56;5024537;28;20054;-81
2023/07/27 00:56:02;;;;;;;0.40;0.40;;;;;;;16.46;100.00;98159.84;4992866;28;20105;-80
2023/07/27 00:58:29;;;;;;;0.30;0.30;;;;;;;16.52;100.00;98168.72;4992318;28;20202;-81
2023/07/27 01:00:56;;;;;;;0.32;0.32;;;;;;;16.57;100.00;98165.06;4992930;28;20082;-81
2023/07/27 01:03:23;;;;;;;0.30;0.30;;;;;;;16.60;100.00;98178.88;5024056;28;20054;-80
2023/07/27 01:05:51;;;;;;;0.30;0.30;;;;;;;16.62;100.00;98181.31;4991906;28;20057;-80
2023/07/27 01:08:18;;;;;;;0.30;0.30;;;;;;;16.61;100.00;98185.97;5007617;28;20061;-80
2023/07/27 01:10:53;;;;;;;0.40;0.40;;;;;;;16.62;100.00;98190.28;4992448;28;20517;-79
2023/07/27 01:13:31;;;;;;;0.40;0.40;;;;;;;16.58;100.00;98191.19;4992831;28;20073;-80
2023/07/27 01:16:00;;;;;;;0.40;0.40;;;;;;;16.53;100.00;98192.09;5007350;28;20493;-79
2023/07/27 01:18:47;;;;;;;0.30;0.30;;;;;;;16.53;100.00;98189.38;4990967;28;20145;-79
2023/07/27 01:21:17;;;;;;;0.30;0.30;;;;;;;16.49;100.00;98191.09;5007389;28;20053;-79
2023/07/27 01:23:55;;;;;;;0.30;0.30;;;;;;;16.52;100.00;98186.97;4992097;28;20062;-79
2023/07/27 01:26:40;;;;;;;0.30;0.30;;;;;;;16.55;100.00;98178.19;4992045;28;20050;-79
2023/07/27 01:29:28;;;;;;;0.32;0.32;;;;;;;16.53;100.00;98181.19;5023911;28;20046;-80
2023/07/27 01:31:56;;;;;;;0.30;0.30;;;;;;;16.55;100.00;98186.34;4992624;28;20055;-80
2023/07/27 01:34:29;;;;;;;0.30;0.30;;;;;;;16.56;100.00;98190.69;4992060;28;20330;-80
2023/07/27 01:37:02;;;;;;;0.40;0.40;;;;;;;16.55;100.00;98189.09;5007133;28;20045;-79
2023/07/27 01:39:32;;;;;;;0.35;0.35;;;;;;;16.53;100.00;98175.75;5023414;28;20073;-79
2023/07/27 01:42:00;;;;;;;0.30;0.30;;;;;;;16.55;100.00;98165.38;5007098;28;20052;-80
2023/07/27 01:44:30;;;;;;;0.40;0.40;;;;;;;16.54;100.00;98173.88;5006790;28;20050;-80
2023/07/27 01:46:58;;;;;;;0.30;0.30;;;;;;;16.58;100.00;98161.22;5007285;28;20057;-79
2023/07/27 01:49:26;;;;;;;0.40;0.40;;;;;;;16.62;100.00;98162.25;5006842;28;20117;-80
2023/07/27 01:51:53;;;;;;;0.40;0.40;;;;;;;16.64;100.00;98158.09;5003023;28;20420;-79
2023/07/27 01:54:20;;;;;;;0.30;0.30;;;;;;;16.66;100.00;98158.63;5027928;28;20140;-80
2023/07/27 01:56:49;;;;;;;0.40;0.40;;;;;;;16.69;100.00;98160.72;5045397;28;20076;-80
2023/07/27 01:59:17;;;;;;;0.40;0.40;;;;;;;16.74;100.00;98161.75;4979836;28;20049;-79
2023/07/27 02:01:44;;;;;;;0.30;0.30;;;;;;;16.74;100.00;98168.00;4995542;28;20049;-81
2023/07/27 02:04:12;;;;;;;0.40;0.40;;;;;;;16.77;100.00;98174.75;5007670;28;20508;-81
2023/07/27 02:06:40;;;;;;;0.30;0.30;;;;;;;16.76;100.00;98176.66;5026220;28;20054;-80
2023/07/27 02:09:07;;;;;;;0.30;0.30;;;;;;;16.73;100.00;98174.53;5010790;28;20088;-80
2023/07/27 02:11:35;;;;;;;0.30;0.30;;;;;;;16.75;100.00;98172.31;4999670;28;20068;-79
2023/07/27 02:14:13;;;;;;;0.40;0.40;;;;;;;16.79;100.00;98167.09;5008223;28;20041;-82
2023/07/27 02:16:44;;;;;;;0.40;0.40;;;;;;;16.75;100.00;98169.59;5009458;28;20164;-79
2023/07/27 02:19:14;;;;;;;0.30;0.30;;;;;;;16.77;100.00;98170.09;5020684;28;20050;-78
2023/07/27 02:21:41;;;;;;;0.30;0.30;;;;;;;16.80;100.00;98177.69;4987593;28;20056;-79
2023/07/27 02:24:09;;;;;;;0.30;0.30;;;;;;;16.80;100.00;98180.41;4996659;28;20598;-80
2023/07/27 02:26:36;;;;;;;0.40;0.40;;;;;;;16.80;100.00;98179.59;5000982;28;20145;-80
2023/07/27 02:29:03;;;;;;;0.30;0.30;;;;;;;16.74;100.00;98176.16;4982071;28;20728;-81
2023/07/27 02:31:30;;;;;;;0.30;0.30;;;;;;;16.72;100.00;98177.56;5018406;28;20163;-79
2023/07/27 02:33:57;;;;;;;0.40;0.40;;;;;;;16.65;100.00;98162.44;5020120;28;20076;-80
2023/07/27 02:36:25;;;;;;;0.40;0.40;;;;;;;16.68;100.00;98159.13;5002225;28;21040;-79
2023/07/27 02:38:52;;;;;;;0.40;0.40;;;;;;;16.69;100.00;98159.91;4990270;28;20050;-79
2023/07/27 02:41:19;;;;;;;0.30;0.30;;;;;;;16.74;100.00;98153.56;4993479;28;20074;-79
2023/07/27 02:43:50;;;;;;;0.30;0.30;;;;;;;16.76;100.00;98143.97;4997796;28;20132;-79
2023/07/27 02:46:18;;;;;;;0.30;0.30;;;;;;;16.71;100.00;98141.34;5006243;28;20050;-79
2023/07/27 02:48:45;;;;;;;0.30;0.30;;;;;;;16.76;100.00;98129.53;4989575;28;20050;-79
2023/07/27 02:51:12;;;;;;;0.30;0.30;;;;;;;16.78;100.00;98121.88;5005968;28;20057;-79
2023/07/27 02:53:39;;;;;;;0.40;0.40;;;;;;;16.79;100.00;98107.16;4999010;28;20054;-77
2023/07/27 02:56:17;;;;;;;0.30;0.30;;;;;;;16.82;100.00;98080.09;4994894;28;20121;-77
2023/07/27 02:58:47;;;;;;;0.40;0.40;;;;;;;16.85;100.00;98057.69;4998242;28;20058;-78
2023/07/27 03:01:15;;;;;;;0.30;0.30;;;;;;;16.85;100.00;98044.06;4995740;28;20623;-79
2023/07/27 03:03:43;;;;;;;0.40;0.40;;;;;;;16.87;100.00;98057.38;4998885;28;20119;-79
2023/07/27 03:06:11;;;;;;;0.40;0.40;;;;;;;16.90;100.00;98062.19;5016063;28;20074;-79
2023/07/27 03:08:44;;;;;;;0.30;0.30;;;;;;;16.98;100.00;98060.66;4993308;28;20042;-78
2023/07/27 03:11:11;;;;;;;0.30;0.30;;;;;;;17.03;100.00;98085.06;4993335;28;20420;-79
2023/07/27 03:13:38;;;;;;;0.40;0.40;;;;;;;17.15;100.00;98104.41;5002288;28;20157;-79
2023/07/27 03:16:05;;;;;;;0.40;0.40;;;;;;;17.29;100.00;98132.44;5013029;28;20049;-79
2023/07/27 03:18:33;;;;;;;0.40;0.40;;;;;;;17.36;100.00;98163.91;5011333;28;20068;-78
2023/07/27 03:21:04;;;;;;;0.30;0.30;;;;;;;17.41;100.00;98177.41;5013702;28;20618;-79
2023/07/27 03:23:33;;;;;;;0.30;0.30;;;;;;;17.30;100.00;98183.09;5024074;28;20573;-79
2023/07/27 03:26:01;;;;;;;0.30;0.30;;;;;;;17.20;100.00;98183.34;5013582;28;20108;-79
2023/07/27 03:28:31;;;;;;;0.30;0.30;;;;;;;17.12;100.00;98184.09;5009831;28;20045;-79
2023/07/27 03:31:01;;;;;;;0.30;0.30;;;;;;;17.11;100.00;98212.44;4996237;28;20500;-80
2023/07/27 03:33:28;;;;;;;0.40;0.40;;;;;;;17.07;100.00;98234.06;5008156;28;20081;-80
2023/07/27 03:35:55;;;;;;;0.30;0.30;;;;;;;17.07;100.00;98239.53;5008805;28;20080;-79
2023/07/27 03:38:22;;;;;;;0.30;0.30;;;;;;;17.09;100.00;98261.00;5010706;28;20140;-80
2023/07/27 03:40:49;;;;;;;0.30;0.30;;;;;;;17.09;100.00;98259.09;4999987;28;20057;-79
2023/07/27 03:43:16;;;;;;;0.30;0.30;;;;;;;17.16;100.00;98269.59;5017374;28;20199;-80
2023/07/27 03:45:43;;;;;;;0.30;0.30;;;;;;;17.18;100.00;98267.38;5004046;28;20050;-79
2023/07/27 03:48:10;;;;;;;0.30;0.30;;;;;;;17.17;100.00;98273.94;5028011;28;20053;-79
2023/07/27 03:50:37;;;;;;;0.30;0.30;;;;;;;17.17;100.00;98275.88;5013484;28;20492;-79
2023/07/27 03:53:04;;;;;;;0.30;0.30;;;;;;;17.17;100.00;98268.50;5013353;28;20053;-79
2023/07/27 03:55:35;;;;;;;0.30;0.30;;;;;;;17.21;100.00;98272.19;5012863;28;20137;-79
2023/07/27 03:58:02;;;;;;;0.30;0.30;;;;;;;17.28;100.00;98285.44;5012062;28;20046;-79
2023/07/27 04:00:29;;;;;;;0.30;0.30;;;;;;;17.27;100.00;98295.53;5012543;28;20095;-78
2023/07/27 04:02:56;;;;;;;0.30;0.30;;;;;;;17.27;100.00;98309.16;5028503;28;20510;-78
2023/07/27 04:05:23;;;;;;;0.30;0.30;;;;;;;17.26;100.00;98323.91;5011601;28;20054;-79
2023/07/27 04:07:51;;;;;;;0.30;0.30;;;;;;;17.26;100.00;98334.81;5011742;28;20054;-79
2023/07/27 04:10:19;;;;;;;0.40;0.40;;;;;;;17.26;100.00;98334.81;5011922;28;20050;-78
2023/07/27 04:12:46;;;;;;;0.30;0.30;;;;;;;17.31;100.00;98342.88;5012823;28;20389;-80
2023/07/27 04:15:14;;;;;;;0.30;0.30;;;;;;;17.33;100.00;98348.84;4995636;28;20050;-80
2023/07/27 04:17:41;;;;;;;0.30;0.30;;;;;;;17.36;100.00;98344.69;5011262;28;20093;-79
2023/07/27 04:20:09;;;;;;;0.30;0.30;;;;;;;17.31;100.00;98352.97;5012574;28;20076;-79
2023/07/27 04:22:36;;;;;;;0.30;0.30;;;;;;;17.19;100.00;98350.78;5008785;28;20042;-80
2023/07/27 04:25:04;;;;;;;0.30;0.30;;;;;;;17.10;100.00;98352.59;5011483;28;20053;-81
2023/07/27 04:27:31;;;;;;;0.30;0.30;;;;;;;17.09;100.00;98340.88;4676509;28;10000409;-78
2023/07/27 04:29:58;;;;;;;0.30;0.30;;;;;;;17.14;100.00;98347.34;5008349;28;20142;-77
2023/07/27 04:32:25;;;;;;;0.30;0.30;;;;;;;17.16;100.00;98356.03;5007866;28;20471;-79
2023/07/27 04:34:56;;;;;;;0.30;0.30;;;;;;;17.15;100.00;98366.13;5022758;28;20133;-80
2023/07/27 04:37:26;;;;;;;0.38;0.38;;;;;;;17.12;100.00;98366.75;5007923;28;20053;-79
2023/07/27 04:39:53;;;;;;;0.30;0.30;;;;;;;17.08;100.00;98360.25;5007732;28;20456;-81
2023/07/27 04:42:20;;;;;;;0.30;0.30;;;;;;;17.11;100.00;98346.81;5012337;28;20058;-79
2023/07/27 04:44:47;;;;;;;0.30;0.30;;;;;;;17.20;100.00;98313.41;5004618;28;20054;-78
2023/07/27 04:47:13;;;;;;;0.40;0.40;;;;;;;17.35;100.00;98315.81;5010802;28;20444;-80
2023/07/27 04:49:40;;;;;;;0.30;0.30;;;;;;;17.54;100.00;98323.84;4994664;28;20449;-79
2023/07/27 04:52:08;;;;;;;0.40;0.40;;;;;;;17.61;100.00;98302.41;5011214;28;20050;-79
2023/07/27 04:54:35;;;;;;;0.40;0.40;;;;;;;17.66;100.00;98293.31;5011923;28;20466;-80
2023/07/27 04:57:01;;;;;;;0.30;0.30;;;;;;;17.67;100.00;98311.28;5012136;28;20057;-79
2023/07/27 04:59:29;;;;;;;0.30;0.30;;;;;;;17.77;100.00;98314.59;5010958;28;20176;-80
2023/07/27 05:01:56;;;;;;;0.30;0.30;;;;;;;17.82;100.00;98327.34;4994513;28;20480;-79
2023/07/27 05:04:23;;;;;;;0.30;0.30;;;;;;;17.92;100.00;98335.28;5008088;28;20069;-78
2023/07/27 05:06:50;;;;;;;0.30;0.30;;;;;;;17.93;100.00;98342.38;5010033;28;20085;-78
2023/07/27 05:09:17;;;;;;;0.30;0.30;;;;;;;17.92;100.00;98348.13;5007983;28;20497;-80
2023/07/27 05:11:44;;;;;;;0.30;0.30;;;;;;;17.96;100.00;98360.06;5011560;28;20042;-78
2023/07/27 05:14:12;;;;;;;0.30;0.30;;;;;;;17.90;100.00;98342.16;4978376;28;20065;-80
2023/07/27 05:16:39;;;;;;;0.30;0.30;;;;;;;17.95;100.00;98344.78;5005303;28;20401;-81
2023/07/27 05:19:07;;;;;;;0.40;0.40;;;;;;;18.02;100.00;98345.16;5007122;28;20046;-81
2023/07/27 05:21:33;;;;;;;0.40;0.40;;;;;;;18.10;100.00;98336.22;5011474;28;20049;-79
2023/07/27 05:24:00;;;;;;;0.40;0.40;;;;;;;18.24;100.00;98341.63;5013082;28;20046;-80
2023/07/27 05:26:28;;;;;;;0.40;0.40;;;;;;;18.41;98.60;98341.75;5012310;28;20116;-79
2023/07/27 05:28:55;;;;;;;0.40;0.40;;;;;;;18.49;97.59;98339.38;5012347;28;20046;-82
2023/07/27 05:31:25;;;;;;;0.30;0.30;;;;;;;18.62;96.55;98331.09;5008234;28;20131;-82
2023/07/27 05:33:52;;;;;;;0.30;0.30;;;;;;;18.65;95.91;98323.41;5007117;28;20421;-81
2023/07/27 05:36:19;;;;;;;0.40;0.40;;;;;;;18.67;95.79;98330.16;5011001;28;20045;-83
2023/07/27 05:38:46;;;;;;;0.40;0.40;;;;;;;18.75;95.25;98334.06;5010710;28;20632;-81
2023/07/27 05:41:13;;;;;;;0.40;0.40;;;;;;;18.74;94.39;98335.19;5003257;28;20539;-81
2023/07/27 05:43:40;;;;;;;0.30;0.30;;;;;;;18.72;93.67;98342.88;5010911;28;20585;-78
2023/07/27 05:46:07;;;;;;;0.30;0.30;;;;;;;18.59;93.76;98331.72;5011249;28;20061;-80
2023/07/27 05:48:34;;;;;;;0.40;0.40;;;;;;;18.53;93.90;98338.44;5008199;28;20061;-77
2023/07/27 05:51:01;;;;;;;0.40;0.40;;;;;;;18.62;94.24;98341.22;5011424;28;20046;-79
2023/07/27 05:53:28;;;;;;;0.40;0.40;;;;;;;18.99;93.00;98334.50;5010764;28;20108;-81
2023/07/27 05:55:55;;;;;;;0.40;0.40;;;;;;;19.33;90.98;98343.94;5010306;28;20077;-81
2023/07/27 05:58:22;;;;;;;0.40;0.40;;;;;;;19.65;89.09;98336.44;5010168;28;20054;-80
2023/07/27 06:01:01;;;;;;;0.40;0.40;;;;;;;19.99;86.19;98321.97;5004065;28;20148;-79
2023/07/27 06:03:29;;;;;;;0.40;0.40;;;;;;;20.14;84.57;98306.97;5009763;28;20775;-81
2023/07/27 06:05:57;;;;;;;0.40;0.40;;;;;;;20.06;85.71;98318.75;4993216;28;20538;-82
2023/07/27 06:08:24;;;;;;;0.30;0.30;;;;;;;20.06;86.04;98318.75;5006416;28;20133;-81
2023/07/27 06:11:12;;;;;;;0.38;0.38;;;;;;;20.21;85.03;98310.03;5004588;28;20053;-81
2023/07/27 06:13:39;;;;;;;0.40;0.40;;;;;;;20.43;83.53;98319.16;4991568;28;20050;-81
2023/07/27 06:16:06;;;;;;;0.40;0.40;;;;;;;20.52;83.13;98322.69;5021689;28;20041;-80
2023/07/27 06:18:33;;;;;;;0.30;0.30;;;;;;;20.49;82.55;98326.09;5010044;28;20045;-80
2023/07/27 06:21:00;;;;;;;0.30;0.30;;;;;;;20.55;82.03;98316.59;5010652;28;20100;-80
2023/07/27 06:23:27;;;;;;;0.40;0.40;;;;;;;20.69;81.49;98306.22;5010269;28;20433;-80
2023/07/27 06:25:56;;;;;;;0.30;0.30;;;;;;;20.82;80.93;98309.91;5009029;28;20053;-82
2023/07/27 06:28:23;;;;;;;0.32;0.32;;;;;;;20.88;79.42;98313.25;5010034;28;20516;-80
2023/07/27 06:30:50;;;;;;;0.30;0.30;;;;;;;20.90;78.76;98321.97;5025514;28;20420;-81
2023/07/27 06:33:17;;;;;;;0.30;0.30;;;;;;;20.90;76.18;98327.44;5010648;28;20073;-81
2023/07/27 06:35:44;;;;;;;0.30;0.30;;;;;;;21.06;76.74;98336.72;5009851;28;20096;-81
2023/07/27 06:38:11;;;;;;;0.30;0.30;;;;;;;21.15;76.24;98332.00;5012590;28;20050;-80
2023/07/27 06:40:39;;;;;;;0.35;0.35;;;;;;;21.30;76.07;98321.59;5009423;28;20374;-81
2023/07/27 06:43:07;;;;;;;0.30;0.30;;;;;;;21.51;74.96;98318.91;5013349;28;20133;-81
2023/07/27 06:45:34;;;;;;;0.30;0.30;;;;;;;21.52;72.61;98318.59;5013051;28;20472;-81
2023/07/27 06:48:02;;;;;;;0.30;0.30;;;;;;;21.43;71.39;98315.09;5011374;28;20128;-81
2023/07/27 06:50:29;;;;;;;0.30;0.30;;;;;;;21.21;72.13;98325.19;5013992;28;20096;-83
2023/07/27 06:52:57;;;;;;;0.30;0.30;;;;;;;21.30;71.90;98319.66;5014506;28;20078;-81
2023/07/27 06:55:24;;;;;;;0.30;0.30;;;;;;;21.32;71.48;98316.56;5014537;28;20092;-82
2023/07/27 06:57:54;;;;;;;0.30;0.30;;;;;;;21.31;68.77;98312.22;5010809;28;20050;-81
2023/07/27 07:00:21;;;;;;;0.30;0.30;;;;;;;21.70;68.21;98310.19;4982036;28;20073;-82
2023/07/27 07:02:48;;;;;;;0.30;0.30;;;;;;;22.17;65.84;98318.22;5026274;28;20532;-81
2023/07/27 07:05:15;;;;;;;0.35;0.35;;;;;;;22.52;63.42;98320.66;4995508;28;20054;-81
2023/07/27 07:07:43;;;;;;;0.30;0.30;;;;;;;22.25;63.85;98320.09;4996469;28;20827;-81
2023/07/27 07:10:10;;;;;;;0.30;0.30;;;;;;;21.93;63.01;98319.72;5009547;28;20084;-81
2023/07/27 07:12:38;;;;;;;0.30;0.30;;;;;;;21.71;65.13;98314.56;5001668;28;20050;-81
2023/07/27 07:15:06;;;;;;;0.30;0.30;;;;;;;21.84;64.55;98310.75;4997922;28;20077;-80
2023/07/27 07:17:33;;;;;;;0.30;0.30;;;;;;;21.85;64.59;98315.09;5018210;28;20050;-79
2023/07/27 07:20:04;;;;;;;0.30;0.30;;;;;;;21.88;64.95;98310.88;4995046;28;20050;-81
2023/07/27 07:22:32;;;;;;;0.30;0.30;;;;;;;22.01;64.94;98298.81;4994459;28;20106;-81
2023/07/27 07:24:59;;;;;;;0.30;0.30;;;;;;;21.96;64.45;98302.56;4995853;28;20077;-81
2023/07/27 07:27:27;;;;;;;0.30;0.30;;;;;;;22.01;62.86;98302.34;5005719;28;20053;-82
2023/07/27 07:29:54;;;;;;;0.30;0.30;;;;;;;22.15;63.54;98298.50;4994508;28;20054;-80
2023/07/27 07:32:21;;;;;;;0.30;0.30;;;;;;;22.26;63.00;98302.50;5005979;28;20128;-81
2023/07/27 07:34:52;;;;;;;0.30;0.30;;;;;;;22.24;62.40;98297.31;4994459;28;20069;-80
2023/07/27 07:37:19;;;;;;;0.30;0.30;;;;;;;22.46;61.99;98309.06;5005529;28;20046;-82
2023/07/27 07:39:46;;;;;;;0.30;0.30;;;;;;;22.76;60.29;98301.44;4994153;28;20054;-81
2023/07/27 07:42:13;;;;;;;0.30;0.30;;;;;;;22.89;59.96;98294.81;5005363;28;20042;-81
2023/07/27 07:44:40;;;;;;;0.30;0.30;;;;;;;23.03;59.84;98299.19;5011921;28;20523;-82
2023/07/27 07:47:07;;;;;;;0.30;0.30;;;;;;;23.04;60.21;98301.63;5011403;28;20053;-80
2023/07/27 07:49:34;;;;;;;0.30;0.30;;;;;;;23.18;58.96;98306.75;5010640;28;20050;-81
2023/07/27 07:52:01;;;;;;;0.30;0.30;;;;;;;23.50;57.69;98298.69;4998902;28;20059;-82
2023/07/27 07:54:31;;;;;;;0.30;0.30;;;;;;;23.62;56.55;98306.91;5001198;28;20141;-81
2023/07/27 07:56:58;;;;;;;0.30;0.30;;;;;;;23.85;55.86;98300.91;4993772;28;20050;-82
2023/07/27 07:59:25;;;;;;;0.30;0.30;;;;;;;24.07;55.20;98305.88;5009509;28;20050;-80
2023/07/27 08:01:52;;;;;;;0.30;0.30;;;;;;;23.98;54.54;98308.00;4996172;28;20054;-82
2023/07/27 08:04:19;;;;;;;0.38;0.38;;;;;;;23.87;55.31;98304.94;5003155;28;20518;-80
2023/07/27 08:06:46;;;;;;;0.30;0.30;;;;;;;23.78;58.02;98307.84;5002573;28;20050;-82
2023/07/27 08:09:14;;;;;;;0.40;0.40;;;;;;;24.08;56.04;98309.44;5007707;28;20108;-83
2023/07/27 08:11:41;;;;;;;0.40;0.40;;;;;;;24.26;55.59;98294.22;5010967;28;20038;-81
2023/07/27 08:14:09;;;;;;;0.30;0.30;;;;;;;23.99;55.72;98306.84;5012188;28;20049;-81
2023/07/27 08:16:36;;;;;;;0.40;0.40;;;;;;;23.90;55.86;98314.44;5012307;28;20132;-81
2023/07/27 08:19:04;;;;;;;0.40;0.40;;;;;;;24.09;55.44;98317.38;5012273;28;20045;-80
2023/07/27 08:21:32;;;;;;;0.38;0.38;;;;;;;24.19;53.86;98325.13;5010781;28;20424;-82
2023/07/27 08:24:00;;;;;;;0.40;0.40;;;;;;;24.40;54.03;98324.13;4974296;28;20050;-81
2023/07/27 08:26:30;;;;;;;0.40;0.40;;;;;;;24.53;52.18;98325.69;5002723;28;20051;-82
2023/07/27 08:28:57;;;;;;;0.40;0.40;;;;;;;24.60;53.33;98333.34;5000408;28;20666;-82
2023/07/27 08:31:25;;;;;;;0.40;0.40;;;;;;;24.98;51.70;98329.19;5017314;28;20148;-81
2023/07/27 08:33:52;;;;;;;0.40;0.40;;;;;;;25.60;49.96;98335.00;4995683;28;20042;-81
2023/07/27 08:36:19;;;;;;;0.40;0.40;;;;;;;25.96;48.42;98327.53;4992993;28;20047;-81
2023/07/27 08:38:46;;;;;;;0.40;0.40;;;;;;;26.18;48.33;98324.00;4992441;28;20502;-81
2023/07/27 08:41:13;;;;;;;0.40;0.40;;;;;;;26.33;48.02;98334.22;4992860;28;20505;-81
2023/07/27 08:43:40;;;;;;;0.40;0.40;;;;;;;26.68;47.84;98329.72;5007903;28;20142;-81
2023/07/27 08:46:10;;;;;;;0.40;0.40;;;;;;;27.05;46.97;98329.97;4992053;28;20050;-82
2023/07/27 08:48:38;;;;;;;0.30;0.30;;;;;;;26.64;46.88;98328.84;4991271;28;20497;-81
2023/07/27 08:51:05;;;;;;;0.20;0.20;;;;;;;26.52;48.48;98329.81;4991735;28;20054;-81
2023/07/27 08:53:32;;;;;;;0.20;0.20;;;;;;;25.94;49.76;98336.97;4992305;28;20061;-82
2023/07/27 08:55:59;;;;;;;0.30;0.30;;;;;;;25.45;49.34;98334.69;4992782;28;20061;-82
2023/07/27 08:58:27;;;;;;;0.40;0.40;;;;;;;26.10;47.85;98336.09;4975232;28;20042;-82
2023/07/27 09:12:08;;;;;;;0.30;0.30;;;;;;;27.67;43.63;98343.59;5067652;28;20937;-84
2023/07/27 09:14:38;;;;;;;0.40;0.40;;;;;;;27.92;42.58;98345.94;5049832;28;20051;-83
2023/07/27 09:17:07;;;;;;;0.30;0.30;;;;;;;27.98;43.26;98350.81;5067479;28;20049;-83
2023/07/27 09:19:37;;;;;;;0.30;0.30;;;;;;;28.16;43.00;98358.56;5067308;28;20049;-84
2023/07/27 09:22:05;;;;;;;0.30;0.30;;;;;;;28.36;43.01;98359.97;5066246;28;20048;-84
2023/07/27 09:24:33;;;;;;;0.40;0.40;;;;;;;28.56;41.71;98362.59;5067185;28;20049;-83
2023/07/27 09:27:01;;;;;;;0.40;0.40;;;;;;;28.09;41.63;98350.94;5067454;28;20099;-86
2023/07/27 09:29:29;;;;;;;0.40;0.40;;;;;;;28.42;41.82;98357.66;5065982;28;20067;-82
2023/07/27 09:32:00;;;;;;;0.40;0.40;;;;;;;28.11;41.56;98354.13;5066242;28;20045;-83
2023/07/27 09:34:29;;;;;;;0.40;0.40;;;;;;;28.46;40.71;98348.22;5067745;28;20493;-84
2023/07/27 09:37:06;;;;;;;0.40;0.40;;;;;;;28.99;40.49;98352.69;5050207;28;20492;-83
2023/07/27 09:39:35;;;;;;;0.30;0.30;;;;;;;29.07;39.34;98348.06;5066131;28;20045;-83
2023/07/27 09:42:03;;;;;;;0.20;0.20;;;;;;;27.69;42.22;98348.78;5067368;28;20535;-83
2023/07/27 09:44:30;;;;;;;0.30;0.30;;;;;;;26.99;43.93;98348.06;5066023;28;20095;-84
2023/07/27 09:46:59;;;;;;;0.30;0.30;;;;;;;27.34;44.26;98345.09;5067233;28;20049;-84
2023/07/27 09:49:28;;;;;;;0.30;0.30;;;;;;;27.73;43.43;98338.56;5067164;28;20076;-84
2023/07/27 09:51:55;;;;;;;0.40;0.40;;;;;;;28.42;42.76;98335.47;5067313;28;20055;-81
2023/07/27 09:54:25;;;;;;;0.30;0.30;;;;;;;28.92;42.59;98336.78;5069306;28;20411;-84
2023/07/27 09:56:53;;;;;;;0.30;0.30;;;;;;;29.05;41.48;98333.72;5071013;28;20049;-85
2023/07/27 09:59:22;;;;;;;0.20;0.20;;;;;;;28.28;42.86;98338.84;5066028;28;20052;-84
2023/07/27 10:01:50;;;;;;;0.40;0.40;;;;;;;28.08;43.63;98327.94;5066474;28;20143;-83
2023/07/27 10:04:18;;;;;;;0.32;0.32;;;;;;;28.90;42.34;98325.25;5067144;28;20048;-83
2023/07/27 10:06:45;;;;;;;0.40;0.40;;;;;;;29.56;41.16;98307.91;5066990;28;20469;-84
2023/07/27 10:09:18;;;;;;;0.30;0.30;;;;;;;29.30;41.92;98298.63;5070543;28;20045;-83
2023/07/27 10:11:52;;;;;;;0.40;0.40;;;;;;;29.17;41.67;98300.13;5072261;28;20407;-82
2023/07/27 10:14:27;;;;;;;0.30;0.30;;;;;;;29.34;41.13;98299.41;5037290;28;20045;-83
2023/07/27 10:17:04;;;;;;;0.20;0.20;;;;;;;29.13;42.09;98296.50;5052599;28;20099;-85
2023/07/27 10:19:44;;;;;;;0.20;0.20;;;;;;;28.78;43.03;98292.22;5053039;28;20056;-83
2023/07/27 10:22:13;;;;;;;0.20;0.20;;;;;;;28.65;42.78;98283.38;5052057;28;20052;-84
2023/07/27 10:24:51;;;;;;;0.20;0.20;;;;;;;28.32;43.64;98275.91;5053000;28;20073;-83
2023/07/27 10:27:19;;;;;;;0.20;0.20;;;;;;;27.58;45.25;98265.50;5053813;28;20080;-84
2023/07/27 10:29:54;;;;;;;0.10;0.10;;;;;;;26.96;46.74;98263.78;5051642;28;20155;-84
2023/07/27 10:32:22;;;;;;;0.20;0.20;;;;;;;26.66;47.72;98266.44;5053058;28;20053;-84
2023/07/27 10:34:51;;;;;;;0.20;0.20;;;;;;;26.56;47.74;98256.00;5052726;28;20053;-83
2023/07/27 10:37:18;;;;;;;0.10;0.10;;;;;;;26.47;48.10;98278.34;5035284;28;20077;-85
2023/07/27 10:39:50;;;;;;;0.20;0.20;;;;;;;26.50;48.18;98274.84;5051313;28;20074;-83
2023/07/27 10:42:21;;;;;;;0.20;0.20;;;;;;;26.71;47.09;98285.53;5052693;28;20118;-84
2023/07/27 10:44:54;;;;;;;0.30;0.30;;;;;;;27.19;46.51;98255.47;5051498;28;20049;-84
2023/07/27 10:47:23;;;;;;;0.30;0.30;;;;;;;28.25;44.35;98259.19;5053060;28;20415;-83
2023/07/27 10:49:58;;;;;;;0.35;0.35;;;;;;;29.07;42.46;98286.94;5052626;28;20049;-85
2023/07/27 10:52:36;;;;;;;0.30;0.30;;;;;;;29.47;42.79;98282.44;5053707;28;20363;-84
2023/07/27 10:55:05;;;;;;;0.50;0.50;;;;;;;30.34;41.83;98284.44;5053121;28;20387;-83
2023/07/27 10:57:33;;;;;;;0.30;0.30;;;;;;;31.32;38.82;98275.72;5036748;28;20549;-85
2023/07/27 11:00:01;;;;;;;0.28;0.28;;;;;;;31.28;38.04;98297.25;5022991;28;20099;-85
2023/07/27 11:02:32;;;;;;;0.40;0.40;;;;;;;30.86;38.51;98296.84;5042927;28;20053;-84
2023/07/27 11:05:05;;;;;;;0.50;0.50;;;;;;;31.89;36.95;98283.94;5041101;28;20049;-84
2023/07/27 11:07:35;;;;;;;0.50;0.50;;;;;;;32.56;35.65;98286.81;5037647;28;20045;-82
2023/07/27 11:10:06;;;;;;;0.30;0.30;;;;;;;32.74;35.51;98293.09;5035863;28;20083;-84
2023/07/27 11:12:50;;;;;;;0.20;0.20;;;;;;;31.37;37.42;98294.81;5033248;28;20049;-82
2023/07/27 11:15:22;;;;;;;0.10;0.10;;;;;;;29.89;40.24;98295.00;5036129;28;20111;-82
2023/07/27 11:17:50;;;;;;;0.20;0.20;;;;;;;28.94;41.88;98300.28;5036884;28;20048;-82
2023/07/27 11:20:24;;;;;;;0.30;0.30;;;;;;;28.19;43.62;98300.34;5030883;28;20056;-84
2023/07/27 11:22:53;;;;;;;0.20;0.20;;;;;;;28.85;43.08;98306.16;5035190;28;20406;-83
2023/07/27 11:25:24;;;;;;;0.10;0.10;;;;;;;28.22;43.97;98296.00;5036736;28;20045;-83
2023/07/27 11:27:53;;;;;;;0.20;0.20;;;;;;;27.60;45.50;98311.06;4994001;28;20048;-83
2023/07/27 11:30:23;;;;;;;0.20;0.20;;;;;;;27.30;45.71;98293.59;5041189;28;20049;-82
2023/07/27 11:33:09;;;;;;;0.20;0.20;;;;;;;27.61;46.24;98298.78;5030472;28;20499;-82
2023/07/27 11:35:48;;;;;;;0.40;0.40;;;;;;;29.04;42.95;98282.91;5031526;28;20049;-83
2023/07/27 11:38:16;;;;;;;0.60;0.60;;;;;;;30.90;39.88;98294.09;5031492;28;20053;-83
2023/07/27 11:40:44;;;;;;;0.30;0.30;;;;;;;31.87;38.06;98280.75;5038106;28;20144;-83
2023/07/27 11:43:11;;;;;;;0.20;0.20;;;;;;;31.13;38.81;98278.94;5048223;28;20056;-82
2023/07/27 11:45:38;;;;;;;0.40;0.40;;;;;;;31.55;37.97;98274.50;5041999;28;20140;-84
2023/07/27 11:48:06;;;;;;;0.40;0.40;;;;;;;32.54;36.59;98255.75;5039888;28;20045;-82